Time;durP1;ratioP1;P1;durP2;ratioP2;P2;SDS_P1;SDS_P2;PMS_P1;PMS_P2;Temp;Humidity;BMP_temperature;BMP_pressure;BME280_temperature;BME280_humidity;BME280_pressure;Samples;Min_cycle;Max_cycle;Signal;HPM_P1;HPM_P2
2023/11/18 00:01:16;;;;;;;53.08;47.55;;;;;;;;;;4982795;28;25141;-72
2023/11/18 00:03:42;;;;;;;54.55;49.33;;;;;;;;;;4990658;28;25060;-74
2023/11/18 00:06:08;;;;;;;59.40;53.10;;;;;;;;;;4985653;28;25067;-71
2023/11/18 00:08:34;;;;;;;62.63;53.90;;;;;;;;;;4984714;28;25053;-72
2023/11/18 00:11:00;;;;;;;53.47;48.03;;;;;;;;;;4985002;28;25109;-73
2023/11/18 00:13:27;;;;;;;58.10;51.33;;;;;;;;;;4983847;28;25108;-72
2023/11/18 00:15:53;;;;;;;53.80;47.97;;;;;;;;;;4986054;28;25074;-72
2023/11/18 00:18:19;;;;;;;59.13;52.00;;;;;;;;;;4987386;28;25099;-73
2023/11/18 00:20:45;;;;;;;56.35;50.63;;;;;;;;;;4987371;28;25046;-73
2023/11/18 00:23:11;;;;;;;56.10;50.55;;;;;;;;;;4987331;28;25161;-76
2023/11/18 00:25:40;;;;;;;57.72;51.65;;;;;;;;;;4987635;28;25099;-72
2023/11/18 00:28:07;;;;;;;55.03;49.65;;;;;;;;;;4981227;28;25044;-73
2023/11/18 00:30:33;;;;;;;55.58;49.90;;;;;;;;;;4982640;28;25070;-72
2023/11/18 00:32:59;;;;;;;59.83;50.83;;;;;;;;;;4985780;28;25063;-72
2023/11/18 00:35:25;;;;;;;52.65;47.17;;;;;;;;;;4981162;28;25051;-71
2023/11/18 00:37:51;;;;;;;59.42;53.10;;;;;;;;;;4986842;28;25082;-73
2023/11/18 00:40:20;;;;;;;65.05;54.72;;;;;;;;;;4983190;28;25102;-71
2023/11/18 00:42:46;;;;;;;59.22;51.28;;;;;;;;;;4986491;28;25054;-73
2023/11/18 00:45:12;;;;;;;60.70;54.28;;;;;;;;;;4986335;28;25044;-72
2023/11/18 00:47:41;;;;;;;56.25;50.75;;;;;;;;;;5002359;28;25063;-71
2023/11/18 00:50:08;;;;;;;60.55;54.42;;;;;;;;;;4974729;28;25050;-72
2023/11/18 00:52:34;;;;;;;61.00;53.60;;;;;;;;;;4982513;28;25077;-72
2023/11/18 00:55:00;;;;;;;59.15;53.05;;;;;;;;;;4985951;28;25099;-73
2023/11/18 00:57:26;;;;;;;58.50;52.45;;;;;;;;;;4985062;28;25094;-71
2023/11/18 00:59:53;;;;;;;58.35;52.45;;;;;;;;;;4982574;28;25073;-73
2023/11/18 01:02:19;;;;;;;56.55;50.72;;;;;;;;;;4985725;28;25066;-74
2023/11/18 01:04:45;;;;;;;52.85;47.28;;;;;;;;;;4979157;28;25136;-72
2023/11/18 01:07:12;;;;;;;58.08;52.53;;;;;;;;;;4983698;28;25057;-71
2023/11/18 01:09:38;;;;;;;56.55;50.85;;;;;;;;;;4983603;28;25083;-74
2023/11/18 01:12:05;;;;;;;54.22;48.97;;;;;;;;;;4983706;28;25074;-71
2023/11/18 01:14:31;;;;;;;55.35;50.00;;;;;;;;;;4980453;28;25062;-71
2023/11/18 01:16:57;;;;;;;53.53;48.17;;;;;;;;;;4981852;28;25085;-72
2023/11/18 01:19:23;;;;;;;59.88;54.15;;;;;;;;;;4983735;28;25073;-73
2023/11/18 01:21:51;;;;;;;60.85;55.42;;;;;;;;;;4982676;28;25168;-74
2023/11/18 01:24:18;;;;;;;60.22;53.65;;;;;;;;;;4982502;28;25078;-72
2023/11/18 01:26:45;;;;;;;59.50;54.15;;;;;;;;;;4988340;28;25048;-71
2023/11/18 01:29:11;;;;;;;58.63;53.20;;;;;;;;;;4993312;28;25055;-72
2023/11/18 01:31:40;;;;;;;57.10;51.78;;;;;;;;;;4993080;28;25156;-75
2023/11/18 01:34:07;;;;;;;53.50;48.25;;;;;;;;;;4978830;28;25053;-72
2023/11/18 01:36:33;;;;;;;56.78;51.33;;;;;;;;;;4980582;28;25058;-75
2023/11/18 01:39:00;;;;;;;52.03;47.28;;;;;;;;;;4982611;28;25153;-74
2023/11/18 01:41:26;;;;;;;55.15;50.08;;;;;;;;;;4979100;28;25049;-74
2023/11/18 01:43:53;;;;;;;56.15;50.97;;;;;;;;;;4982550;28;25056;-73
2023/11/18 01:46:19;;;;;;;56.72;50.95;;;;;;;;;;4984707;28;25105;-73
2023/11/18 01:48:46;;;;;;;55.95;50.47;;;;;;;;;;4983013;28;25171;-71
2023/11/18 01:51:12;;;;;;;54.85;50.05;;;;;;;;;;4979885;28;25048;-71
2023/11/18 01:53:39;;;;;;;54.92;49.72;;;;;;;;;;4989150;28;25072;-74
2023/11/18 01:56:06;;;;;;;53.78;48.58;;;;;;;;;;4983209;28;25063;-72
2023/11/18 01:58:33;;;;;;;54.25;48.58;;;;;;;;;;4982076;28;25149;-71
2023/11/18 02:01:00;;;;;;;51.85;46.78;;;;;;;;;;5004713;28;25050;-74
2023/11/18 02:03:27;;;;;;;46.50;41.90;;;;;;;;;;4979997;28;25061;-74
2023/11/18 02:05:53;;;;;;;54.08;49.13;;;;;;;;;;4984274;28;25098;-71
2023/11/18 02:08:19;;;;;;;52.88;47.70;;;;;;;;;;4984129;28;25097;-74
2023/11/18 02:10:50;;;;;;;52.75;47.58;;;;;;;;;;4986532;28;25067;-72
2023/11/18 02:13:26;;;;;;;43.40;39.55;;;;;;;;;;4986243;28;25078;-73
2023/11/18 02:15:59;;;;;;;53.00;47.80;;;;;;;;;;5002814;28;25071;-74
2023/11/18 02:18:30;;;;;;;51.92;46.88;;;;;;;;;;4988439;28;25049;-74
2023/11/18 02:20:59;;;;;;;49.33;43.45;;;;;;;;;;4986070;28;25089;-71
2023/11/18 02:23:28;;;;;;;44.47;39.78;;;;;;;;;;4999935;28;25056;-73
2023/11/18 02:25:58;;;;;;;51.38;45.63;;;;;;;;;;4989740;28;25077;-71
2023/11/18 02:28:24;;;;;;;54.42;48.97;;;;;;;;;;4992255;28;25142;-72
2023/11/18 02:30:51;;;;;;;54.45;48.72;;;;;;;;;;4988025;28;25065;-72
2023/11/18 02:33:43;;;;;;;57.70;50.88;;;;;;;;;;4988581;28;25067;-73
2023/11/18 02:36:11;;;;;;;56.65;50.95;;;;;;;;;;4954275;28;25063;-72
2023/11/18 02:38:40;;;;;;;62.58;55.67;;;;;;;;;;4984097;28;25097;-74
2023/11/18 02:41:11;;;;;;;53.95;49.20;;;;;;;;;;4979905;28;25059;-73
2023/11/18 02:43:38;;;;;;;64.93;58.00;;;;;;;;;;4987848;28;25064;-72
2023/11/18 02:46:04;;;;;;;63.50;56.85;;;;;;;;;;4987991;28;25056;-71
2023/11/18 02:48:35;;;;;;;65.03;58.55;;;;;;;;;;4990849;28;25070;-73
2023/11/18 02:51:01;;;;;;;64.97;58.80;;;;;;;;;;4989554;28;25062;-72
2023/11/18 02:53:28;;;;;;;67.07;60.28;;;;;;;;;;4986612;28;25130;-75
2023/11/18 02:56:01;;;;;;;66.70;60.15;;;;;;;;;;4988082;28;25061;-72
2023/11/18 02:58:27;;;;;;;65.75;59.35;;;;;;;;;;4986641;28;25098;-72
2023/11/18 03:00:53;;;;;;;63.63;57.78;;;;;;;;;;4985767;28;25078;-72
2023/11/18 03:03:20;;;;;;;67.30;60.92;;;;;;;;;;4987411;28;25046;-73
2023/11/18 03:05:48;;;;;;;62.40;56.63;;;;;;;;;;4986498;28;25131;-74
2023/11/18 03:08:14;;;;;;;63.30;56.75;;;;;;;;;;4986591;28;25156;-73
2023/11/18 03:10:44;;;;;;;62.53;56.78;;;;;;;;;;4989023;28;25133;-72
2023/11/18 03:13:10;;;;;;;61.72;55.45;;;;;;;;;;4984748;28;25125;-73
2023/11/18 03:15:35;;;;;;;62.00;55.88;;;;;;;;;;4986576;28;25123;-73
2023/11/18 03:18:02;;;;;;;54.55;49.35;;;;;;;;;;4988604;28;25078;-73
2023/11/18 03:20:28;;;;;;;53.75;48.70;;;;;;;;;;4986967;28;25052;-74
2023/11/18 03:22:54;;;;;;;57.22;51.65;;;;;;;;;;4984005;28;25114;-72
2023/11/18 03:25:24;;;;;;;56.25;51.03;;;;;;;;;;4985584;28;25070;-73
2023/11/18 03:27:50;;;;;;;58.40;52.35;;;;;;;;;;4983229;28;25067;-75
2023/11/18 03:30:16;;;;;;;55.40;49.58;;;;;;;;;;4983997;28;25075;-71
2023/11/18 03:32:42;;;;;;;52.33;47.22;;;;;;;;;;4984283;28;25075;-74
2023/11/18 03:35:09;;;;;;;49.78;45.08;;;;;;;;;;4984442;28;25083;-75
2023/11/18 03:37:35;;;;;;;52.03;46.75;;;;;;;;;;4985558;28;25119;-73
2023/11/18 03:40:01;;;;;;;47.67;42.80;;;;;;;;;;4981944;28;25066;-72
2023/11/18 03:42:29;;;;;;;50.55;45.08;;;;;;;;;;4986702;28;25137;-73
2023/11/18 03:44:54;;;;;;;42.53;38.55;;;;;;;;;;4983997;28;25079;-74
2023/11/18 03:47:23;;;;;;;47.42;42.53;;;;;;;;;;4968686;28;25120;-74
2023/11/18 03:49:50;;;;;;;45.67;40.97;;;;;;;;;;4985723;28;25057;-72
2023/11/18 03:52:15;;;;;;;52.28;45.63;;;;;;;;;;4987920;28;25055;-73
2023/11/18 03:54:41;;;;;;;54.33;41.17;;;;;;;;;;4984096;28;25059;-73
2023/11/18 03:57:07;;;;;;;45.08;40.20;;;;;;;;;;4976303;28;25068;-72
2023/11/18 03:59:33;;;;;;;48.17;43.13;;;;;;;;;;4985533;28;25051;-72
2023/11/18 04:01:59;;;;;;;47.03;42.28;;;;;;;;;;5008178;28;25153;-74
2023/11/18 04:04:25;;;;;;;47.35;40.28;;;;;;;;;;4985250;28;25152;-74
2023/11/18 04:06:51;;;;;;;43.67;38.50;;;;;;;;;;4980819;28;25077;-76
2023/11/18 04:09:18;;;;;;;44.47;38.72;;;;;;;;;;4976723;28;25093;-73
2023/11/18 04:11:45;;;;;;;43.72;38.60;;;;;;;;;;4984377;28;25164;-72
2023/11/18 04:14:13;;;;;;;44.65;39.22;;;;;;;;;;4984289;28;25066;-72
2023/11/18 04:16:39;;;;;;;46.47;40.35;;;;;;;;;;4983438;28;25073;-72
2023/11/18 04:19:06;;;;;;;40.58;34.85;;;;;;;;;;4986472;28;25075;-73
2023/11/18 04:21:32;;;;;;;40.30;35.25;;;;;;;;;;4985743;28;25066;-72
2023/11/18 04:23:57;;;;;;;42.15;35.63;;;;;;;;;;4983206;28;25129;-72
2023/11/18 04:26:24;;;;;;;46.05;39.80;;;;;;;;;;4987255;28;25075;-72
2023/11/18 04:28:50;;;;;;;44.75;38.65;;;;;;;;;;4987236;28;25087;-71
2023/11/18 04:31:16;;;;;;;42.30;37.90;;;;;;;;;;4991896;28;25121;-73
2023/11/18 04:33:42;;;;;;;43.33;39.00;;;;;;;;;;4987426;28;25053;-72
2023/11/18 04:36:10;;;;;;;39.47;35.45;;;;;;;;;;4978808;28;25066;-73
2023/11/18 04:38:36;;;;;;;41.22;36.80;;;;;;;;;;4985380;28;25128;-74
2023/11/18 04:41:03;;;;;;;43.47;38.83;;;;;;;;;;4985603;28;25088;-76
2023/11/18 04:43:29;;;;;;;47.10;41.97;;;;;;;;;;4985720;28;25085;-70
2023/11/18 04:45:55;;;;;;;50.10;44.80;;;;;;;;;;4988195;28;25161;-74
2023/11/18 04:48:21;;;;;;;46.25;41.35;;;;;;;;;;4980111;28;25173;-72
2023/11/18 04:50:47;;;;;;;48.53;43.20;;;;;;;;;;4984776;28;25094;-72
2023/11/18 04:53:13;;;;;;;50.25;45.05;;;;;;;;;;4985786;28;25097;-73
2023/11/18 04:55:39;;;;;;;48.92;43.60;;;;;;;;;;4985611;28;25165;-76
2023/11/18 04:58:06;;;;;;;49.45;44.25;;;;;;;;;;4982691;28;25038;-71
2023/11/18 05:00:37;;;;;;;51.67;46.45;;;;;;;;;;4988834;28;25105;-73
2023/11/18 05:03:03;;;;;;;58.67;47.65;;;;;;;;;;4991621;28;25139;-72
2023/11/18 05:05:29;;;;;;;46.58;41.35;;;;;;;;;;4996655;28;25067;-72
2023/11/18 05:07:55;;;;;;;50.78;40.58;;;;;;;;;;4997083;28;25083;-73
2023/11/18 05:10:21;;;;;;;47.50;37.40;;;;;;;;;;4989416;28;25137;-73
2023/11/18 05:12:55;;;;;;;46.88;41.95;;;;;;;;;;4983593;28;25138;-74
2023/11/18 05:15:24;;;;;;;39.47;35.33;;;;;;;;;;4987566;28;25063;-76
2023/11/18 05:17:50;;;;;;;42.08;34.63;;;;;;;;;;4986458;28;25070;-72
2023/11/18 05:20:17;;;;;;;41.88;34.90;;;;;;;;;;4986494;28;25079;-72
2023/11/18 05:22:43;;;;;;;46.78;33.95;;;;;;;;;;4978859;28;25115;-73
2023/11/18 05:25:12;;;;;;;40.95;31.67;;;;;;;;;;4981236;28;25101;-72
2023/11/18 05:27:41;;;;;;;42.15;31.98;;;;;;;;;;4980903;28;25072;-73
2023/11/18 05:30:09;;;;;;;46.17;33.72;;;;;;;;;;4973967;28;25057;-72
2023/11/18 05:32:35;;;;;;;45.75;30.27;;;;;;;;;;4981166;28;25134;-73
2023/11/18 05:35:01;;;;;;;43.30;31.25;;;;;;;;;;4976923;28;25124;-74
2023/11/18 05:37:29;;;;;;;46.17;31.08;;;;;;;;;;4981666;28;25069;-72
2023/11/18 05:39:59;;;;;;;42.40;30.83;;;;;;;;;;4982710;28;25117;-71
2023/11/18 05:42:25;;;;;;;43.72;32.15;;;;;;;;;;4978891;28;25047;-72
2023/11/18 05:44:59;;;;;;;40.35;29.98;;;;;;;;;;4980800;28;25158;-73
2023/11/18 05:47:25;;;;;;;47.22;35.25;;;;;;;;;;4981632;28;25096;-73
2023/11/18 05:49:53;;;;;;;49.13;35.05;;;;;;;;;;4983946;28;24997;-73
2023/11/18 05:52:20;;;;;;;49.80;34.72;;;;;;;;;;4988343;28;25072;-73
2023/11/18 05:54:47;;;;;;;47.78;35.25;;;;;;;;;;4981194;28;25096;-71
2023/11/18 05:57:13;;;;;;;51.85;37.45;;;;;;;;;;4983992;28;25130;-73
2023/11/18 05:59:39;;;;;;;49.03;39.08;;;;;;;;;;4989843;28;25171;-71
2023/11/18 06:02:05;;;;;;;50.70;36.63;;;;;;;;;;4984685;28;25090;-72
2023/11/18 06:04:31;;;;;;;54.88;36.53;;;;;;;;;;4979444;28;25140;-73
2023/11/18 06:06:57;;;;;;;41.28;35.40;;;;;;;;;;4977585;28;25135;-71
2023/11/18 06:09:25;;;;;;;43.30;34.28;;;;;;;;;;4974784;28;25140;-72
2023/11/18 06:11:53;;;;;;;45.05;34.33;;;;;;;;;;4974304;28;25136;-70
2023/11/18 06:14:19;;;;;;;43.05;29.95;;;;;;;;;;4982639;28;25081;-74
2023/11/18 06:16:46;;;;;;;37.40;26.25;;;;;;;;;;4990643;28;25105;-72
2023/11/18 06:19:13;;;;;;;41.83;27.80;;;;;;;;;;4992680;28;25073;-73
2023/11/18 06:21:40;;;;;;;41.45;28.70;;;;;;;;;;4979573;28;25132;-72
2023/11/18 06:24:06;;;;;;;39.00;29.73;;;;;;;;;;4982845;28;25135;-76
2023/11/18 06:26:35;;;;;;;36.42;27.27;;;;;;;;;;4987755;28;25067;-75
2023/11/18 06:29:02;;;;;;;39.53;27.65;;;;;;;;;;4982588;28;25072;-72
2023/11/18 06:31:29;;;;;;;36.75;26.08;;;;;;;;;;4982746;28;25103;-74
2023/11/18 06:33:55;;;;;;;43.85;28.42;;;;;;;;;;4983541;28;25059;-73
2023/11/18 06:36:22;;;;;;;41.60;29.33;;;;;;;;;;4979144;28;25150;-73
2023/11/18 06:38:51;;;;;;;40.67;29.40;;;;;;;;;;4984236;28;25050;-72
2023/11/18 06:41:17;;;;;;;40.95;29.23;;;;;;;;;;4979789;28;25066;-73
2023/11/18 06:43:59;;;;;;;33.88;26.45;;;;;;;;;;4987044;28;25065;-73
2023/11/18 06:46:26;;;;;;;36.70;27.88;;;;;;;;;;4978300;28;25080;-73
2023/11/18 06:48:57;;;;;;;36.28;25.30;;;;;;;;;;4991097;28;25154;-73
2023/11/18 06:51:24;;;;;;;31.52;24.30;;;;;;;;;;4979673;28;25064;-72
2023/11/18 06:53:50;;;;;;;34.83;24.73;;;;;;;;;;4990444;28;24735;-70
2023/11/18 06:56:17;;;;;;;37.13;24.38;;;;;;;;;;4988002;28;25082;-72
2023/11/18 06:58:42;;;;;;;35.78;24.88;;;;;;;;;;4988950;28;25128;-73
2023/11/18 07:01:09;;;;;;;39.30;25.33;;;;;;;;;;4988857;28;25144;-70
2023/11/18 07:03:36;;;;;;;33.33;28.13;;;;;;;;;;4989008;28;25068;-73
2023/11/18 07:06:02;;;;;;;35.00;23.95;;;;;;;;;;4986915;28;25053;-72
2023/11/18 07:08:28;;;;;;;32.28;22.05;;;;;;;;;;4984876;28;25061;-72
2023/11/18 07:10:55;;;;;;;30.83;22.45;;;;;;;;;;4982195;28;25127;-75
2023/11/18 07:13:22;;;;;;;37.60;24.58;;;;;;;;;;4983326;28;25069;-72
2023/11/18 07:15:48;;;;;;;42.97;28.08;;;;;;;;;;4979530;28;25048;-73
2023/11/18 07:18:16;;;;;;;33.00;24.80;;;;;;;;;;4991171;28;25062;-73
2023/11/18 07:20:42;;;;;;;31.33;23.60;;;;;;;;;;4987235;28;25069;-73
2023/11/18 07:23:08;;;;;;;30.95;24.50;;;;;;;;;;4979735;28;25060;-71
2023/11/18 07:25:34;;;;;;;30.30;23.35;;;;;;;;;;4977578;28;25150;-72
2023/11/18 07:28:00;;;;;;;33.22;23.70;;;;;;;;;;4980342;28;25106;-72
2023/11/18 07:30:26;;;;;;;38.08;25.88;;;;;;;;;;4979125;28;25055;-72
2023/11/18 07:32:53;;;;;;;30.48;25.75;;;;;;;;;;4982663;28;25062;-72
2023/11/18 07:35:19;;;;;;;31.17;23.70;;;;;;;;;;4984145;28;25117;-71
2023/11/18 07:37:45;;;;;;;26.05;22.23;;;;;;;;;;4986583;28;25075;-72
2023/11/18 07:40:12;;;;;;;28.25;20.63;;;;;;;;;;4986844;28;25125;-72
2023/11/18 07:42:38;;;;;;;29.13;21.95;;;;;;;;;;4986937;28;25067;-73
2023/11/18 07:45:17;;;;;;;27.15;18.05;;;;;;;;;;4987521;28;25107;-72
2023/11/18 07:47:43;;;;;;;28.60;21.17;;;;;;;;;;4981244;28;25074;-69
2023/11/18 07:50:12;;;;;;;33.50;20.65;;;;;;;;;;4984349;28;25058;-73
2023/11/18 07:52:38;;;;;;;25.17;19.05;;;;;;;;;;4982294;28;25133;-74
2023/11/18 07:55:04;;;;;;;29.63;20.73;;;;;;;;;;4980988;28;25100;-73
2023/11/18 07:57:30;;;;;;;28.85;19.38;;;;;;;;;;4986155;28;25083;-75
2023/11/18 07:59:57;;;;;;;26.02;20.00;;;;;;;;;;4986532;28;25115;-72
2023/11/18 08:02:24;;;;;;;24.33;19.77;;;;;;;;;;4984221;28;25166;-72
2023/11/18 08:04:50;;;;;;;27.58;21.67;;;;;;;;;;4985650;28;25122;-72
2023/11/18 08:07:16;;;;;;;30.85;19.27;;;;;;;;;;4986267;28;25076;-73
2023/11/18 08:09:43;;;;;;;30.55;20.55;;;;;;;;;;4990194;28;25161;-74
2023/11/18 08:12:09;;;;;;;27.73;19.48;;;;;;;;;;4990887;28;25072;-74
2023/11/18 08:14:35;;;;;;;25.15;21.90;;;;;;;;;;4984823;28;25078;-74
2023/11/18 08:17:01;;;;;;;29.10;26.02;;;;;;;;;;4988511;28;25062;-77
2023/11/18 08:19:27;;;;;;;34.67;27.52;;;;;;;;;;4985668;28;25065;-75
2023/11/18 08:21:53;;;;;;;31.92;28.75;;;;;;;;;;4984820;28;25067;-72
2023/11/18 08:24:19;;;;;;;34.60;30.92;;;;;;;;;;4980410;28;25092;-74
2023/11/18 08:26:46;;;;;;;35.25;32.13;;;;;;;;;;4986419;28;25165;-73
2023/11/18 08:29:12;;;;;;;35.00;31.42;;;;;;;;;;4986151;28;25061;-71
2023/11/18 08:31:39;;;;;;;39.53;36.00;;;;;;;;;;4986123;28;25062;-73
2023/11/18 08:34:05;;;;;;;44.75;40.42;;;;;;;;;;4983003;28;25066;-72
2023/11/18 08:36:33;;;;;;;47.00;42.95;;;;;;;;;;4981540;28;25062;-72
2023/11/18 08:38:59;;;;;;;48.63;44.15;;;;;;;;;;4987443;28;25150;-71
2023/11/18 08:41:26;;;;;;;50.80;46.00;;;;;;;;;;4990102;28;25074;-72
2023/11/18 08:43:53;;;;;;;52.83;47.78;;;;;;;;;;4985461;28;25046;-75
2023/11/18 08:46:19;;;;;;;49.75;45.30;;;;;;;;;;4991687;28;25062;-73
2023/11/18 08:48:45;;;;;;;53.83;48.92;;;;;;;;;;4993640;28;25072;-76
2023/11/18 08:51:12;;;;;;;59.70;54.15;;;;;;;;;;4992704;28;25066;-72
2023/11/18 08:53:41;;;;;;;56.65;51.97;;;;;;;;;;4987159;28;25081;-74
2023/11/18 08:56:13;;;;;;;57.58;52.47;;;;;;;;;;4986642;28;25103;-73
2023/11/18 08:58:41;;;;;;;58.22;52.95;;;;;;;;;;4987181;28;25097;-74
2023/11/18 09:01:13;;;;;;;57.42;52.22;;;;;;;;;;4987514;28;25073;-72
2023/11/18 09:03:43;;;;;;;59.35;54.10;;;;;;;;;;4982601;28;25091;-73
2023/11/18 09:06:18;;;;;;;63.63;57.65;;;;;;;;;;4986367;28;25138;-71
2023/11/18 09:08:45;;;;;;;62.38;56.88;;;;;;;;;;4984435;28;25168;-73
2023/11/18 09:11:14;;;;;;;61.22;55.58;;;;;;;;;;4981425;28;25127;-75
2023/11/18 09:13:40;;;;;;;62.13;56.20;;;;;;;;;;4986330;28;25087;-71
2023/11/18 09:16:11;;;;;;;59.47;54.33;;;;;;;;;;4985696;28;25089;-75
2023/11/18 09:18:39;;;;;;;64.55;58.63;;;;;;;;;;4984832;28;25063;-73
2023/11/18 09:21:06;;;;;;;66.20;59.67;;;;;;;;;;4983823;28;25082;-73
2023/11/18 09:23:34;;;;;;;68.20;61.95;;;;;;;;;;4980167;28;25078;-72
2023/11/18 09:26:00;;;;;;;67.30;61.20;;;;;;;;;;4984468;28;25087;-71
2023/11/18 09:28:29;;;;;;;66.85;60.00;;;;;;;;;;4985485;28;25065;-72
2023/11/18 09:30:57;;;;;;;64.78;58.83;;;;;;;;;;4982947;28;25078;-73
2023/11/18 09:33:33;;;;;;;69.53;63.20;;;;;;;;;;4983696;28;25076;-76
2023/11/18 09:36:07;;;;;;;73.45;66.80;;;;;;;;;;4983715;28;25080;-73
2023/11/18 09:38:36;;;;;;;70.57;63.97;;;;;;;;;;4984163;28;25128;-76
2023/11/18 09:41:04;;;;;;;72.70;66.00;;;;;;;;;;4983351;28;25123;-73
2023/11/18 09:43:32;;;;;;;71.82;64.63;;;;;;;;;;4982985;28;25095;-72
2023/11/18 09:46:03;;;;;;;63.10;57.35;;;;;;;;;;4983401;28;25086;-73
2023/11/18 09:48:38;;;;;;;65.25;58.30;;;;;;;;;;4980911;28;25149;-73
2023/11/18 09:51:06;;;;;;;73.03;66.35;;;;;;;;;;4983300;28;25098;-72
2023/11/18 09:53:37;;;;;;;80.22;73.10;;;;;;;;;;4984116;28;25068;-73
2023/11/18 09:56:09;;;;;;;83.05;75.05;;;;;;;;;;4984895;28;25075;-74
2023/11/18 09:58:41;;;;;;;86.88;78.28;;;;;;;;;;4983338;28;25055;-75
2023/11/18 10:01:13;;;;;;;79.57;71.30;;;;;;;;;;4984805;28;25108;-72
2023/11/18 10:03:41;;;;;;;79.07;71.63;;;;;;;;;;4985231;28;25066;-72
2023/11/18 10:06:08;;;;;;;77.15;69.65;;;;;;;;;;4980653;28;25077;-74
2023/11/18 10:08:36;;;;;;;75.75;68.88;;;;;;;;;;4985236;28;25120;-73
2023/11/18 10:11:09;;;;;;;83.63;75.50;;;;;;;;;;4981387;28;25052;-73
2023/11/18 10:13:36;;;;;;;;;;;;;;;;;;4985029;28;25072;-73
2023/11/18 10:16:05;;;;;;;80.38;72.47;;;;;;;;;;4985237;28;25068;-75
2023/11/18 10:18:34;;;;;;;75.18;67.97;;;;;;;;;;4983876;28;25058;-74
2023/11/18 10:21:01;;;;;;;73.47;66.78;;;;;;;;;;4977856;28;25059;-72
2023/11/18 10:23:27;;;;;;;68.57;62.08;;;;;;;;;;4983798;28;25062;-72
2023/11/18 10:25:56;;;;;;;71.35;64.65;;;;;;;;;;4984045;28;25070;-74
2023/11/18 10:28:29;;;;;;;75.57;68.38;;;;;;;;;;4986692;28;25094;-73
2023/11/18 10:30:58;;;;;;;74.22;67.30;;;;;;;;;;4980333;28;25136;-73
2023/11/18 10:33:30;;;;;;;74.82;67.70;;;;;;;;;;4987492;28;25091;-72
2023/11/18 10:35:56;;;;;;;72.90;65.83;;;;;;;;;;4987592;28;25105;-73
2023/11/18 10:38:26;;;;;;;71.20;64.47;;;;;;;;;;4989423;28;25064;-72
2023/11/18 10:40:55;;;;;;;73.40;65.95;;;;;;;;;;4994623;28;25073;-74
2023/11/18 10:43:28;;;;;;;71.88;64.63;;;;;;;;;;4990690;28;25087;-72
2023/11/18 10:46:13;;;;;;;73.13;66.55;;;;;;;;;;4996543;28;25061;-73
2023/11/18 10:48:43;;;;;;;71.30;64.38;;;;;;;;;;4985591;28;25170;-72
2023/11/18 10:51:11;;;;;;;70.47;63.08;;;;;;;;;;4988803;28;25065;-73
2023/11/18 10:53:38;;;;;;;73.85;66.38;;;;;;;;;;4996530;28;25087;-73
2023/11/18 10:56:07;;;;;;;68.50;61.60;;;;;;;;;;5007628;28;25108;-70
2023/11/18 10:58:40;;;;;;;74.13;66.05;;;;;;;;;;5008513;28;25067;-75
2023/11/18 11:01:11;;;;;;;74.53;66.97;;;;;;;;;;5007105;28;25072;-72
2023/11/18 11:03:55;;;;;;;75.00;66.20;;;;;;;;;;4996835;28;25135;-75
2023/11/18 11:06:23;;;;;;;70.88;63.63;;;;;;;;;;5003976;28;25052;-76
2023/11/18 11:08:49;;;;;;;63.28;57.00;;;;;;;;;;4995428;28;25054;-78
2023/11/18 11:11:17;;;;;;;63.65;54.92;;;;;;;;;;4986469;28;25060;-73
2023/11/18 11:13:45;;;;;;;55.10;46.78;;;;;;;;;;4986303;28;25107;-72
2023/11/18 11:16:12;;;;;;;60.08;54.00;;;;;;;;;;4987889;28;25137;-74
2023/11/18 11:18:45;;;;;;;63.35;56.88;;;;;;;;;;4990570;28;25109;-71
2023/11/18 11:21:16;;;;;;;60.65;54.28;;;;;;;;;;4990811;28;25057;-71
2023/11/18 11:23:53;;;;;;;64.10;57.45;;;;;;;;;;4985311;28;25089;-76
2023/11/18 11:26:44;;;;;;;57.92;52.08;;;;;;;;;;4986889;28;25074;-74
2023/11/18 11:29:13;;;;;;;60.72;54.35;;;;;;;;;;4975530;28;25131;-74
2023/11/18 11:31:40;;;;;;;54.08;48.85;;;;;;;;;;4983638;28;25079;-74
2023/11/18 11:34:10;;;;;;;54.90;48.90;;;;;;;;;;4987037;28;25078;-74
2023/11/18 11:36:43;;;;;;;53.42;47.78;;;;;;;;;;4986690;28;25096;-74
2023/11/18 11:39:15;;;;;;;51.92;46.40;;;;;;;;;;4985934;28;25073;-73
2023/11/18 11:41:50;;;;;;;53.80;48.25;;;;;;;;;;4986133;28;25066;-75
2023/11/18 11:44:20;;;;;;;54.15;48.42;;;;;;;;;;4984355;28;25052;-75
2023/11/18 11:46:52;;;;;;;57.97;49.78;;;;;;;;;;4984997;28;25072;-73
2023/11/18 11:49:20;;;;;;;;;;;;;;;;;;4988094;28;25153;-73
2023/11/18 11:52:05;;;;;;;56.38;50.38;;;;;;;;;;4984596;28;25067;-74
2023/11/18 11:54:56;;;;;;;59.33;52.90;;;;;;;;;;4984647;28;25068;-74
2023/11/18 11:57:22;;;;;;;55.20;49.58;;;;;;;;;;4983684;28;25082;-80
2023/11/18 11:59:52;;;;;;;52.63;46.97;;;;;;;;;;4993508;28;25057;-74
2023/11/18 12:02:24;;;;;;;52.95;47.42;;;;;;;;;;4987714;28;25054;-73
2023/11/18 12:04:54;;;;;;;55.28;49.45;;;;;;;;;;4990274;28;25065;-75
2023/11/18 12:07:22;;;;;;;55.15;49.55;;;;;;;;;;4992519;28;25145;-76
2023/11/18 12:09:53;;;;;;;52.70;47.17;;;;;;;;;;4992152;28;25054;-81
2023/11/18 12:12:20;;;;;;;53.22;47.85;;;;;;;;;;4982222;28;25099;-74
2023/11/18 12:15:17;;;;;;;47.78;42.97;;;;;;;;;;4982766;28;25100;-76
2023/11/18 12:17:57;;;;;;;51.45;45.38;;;;;;;;;;4980928;28;25110;-76
2023/11/18 12:20:48;;;;;;;49.75;44.63;;;;;;;;;;4991657;28;25067;-74
2023/11/18 12:23:23;;;;;;;47.35;42.78;;;;;;;;;;4987710;28;25060;-72
2023/11/18 12:25:53;;;;;;;47.45;42.80;;;;;;;;;;4989844;28;25051;-78
2023/11/18 12:28:21;;;;;;;48.33;43.78;;;;;;;;;;4995647;28;25073;-81
2023/11/18 12:30:57;;;;;;;48.50;43.55;;;;;;;;;;4993369;28;25075;-80
2023/11/18 12:33:46;;;;;;;48.45;43.45;;;;;;;;;;4993656;28;25131;-74
2023/11/18 12:36:15;;;;;;;46.05;41.55;;;;;;;;;;4984083;28;25055;-75
2023/11/18 12:38:47;;;;;;;46.15;41.70;;;;;;;;;;4989121;28;25059;-75
2023/11/18 12:41:33;;;;;;;44.97;40.55;;;;;;;;;;4984910;28;25056;-80
2023/11/18 12:44:02;;;;;;;43.05;38.83;;;;;;;;;;4994400;28;25075;-73
2023/11/18 12:46:49;;;;;;;45.40;40.90;;;;;;;;;;4982904;28;25125;-75
2023/11/18 12:49:16;;;;;;;44.75;40.45;;;;;;;;;;4986229;28;25045;-79
2023/11/18 12:51:45;;;;;;;43.25;39.20;;;;;;;;;;4985751;28;25069;-76
2023/11/18 12:54:12;;;;;;;46.45;41.88;;;;;;;;;;4996896;28;25181;-75
2023/11/18 12:56:39;;;;;;;44.88;40.40;;;;;;;;;;4980592;28;25071;-76
2023/11/18 12:59:06;;;;;;;44.67;40.42;;;;;;;;;;4987501;28;25102;-76
2023/11/18 13:01:35;;;;;;;44.58;40.22;;;;;;;;;;4977936;28;25061;-74
2023/11/18 13:04:02;;;;;;;45.78;41.78;;;;;;;;;;4977252;28;25051;-75
2023/11/18 13:06:28;;;;;;;44.30;39.88;;;;;;;;;;4985047;28;25061;-75
2023/11/18 13:08:54;;;;;;;41.42;37.53;;;;;;;;;;4979326;28;25061;-75
2023/11/18 13:11:23;;;;;;;42.83;38.70;;;;;;;;;;4993259;28;24966;-78
2023/11/18 13:13:49;;;;;;;39.25;35.53;;;;;;;;;;4991575;28;25059;-75
2023/11/18 13:16:15;;;;;;;43.47;39.25;;;;;;;;;;4985289;28;25056;-75
2023/11/18 13:18:44;;;;;;;41.42;37.63;;;;;;;;;;4988837;28;25054;-75
2023/11/18 13:21:13;;;;;;;45.38;41.35;;;;;;;;;;4990011;28;25076;-76
2023/11/18 13:23:39;;;;;;;40.90;37.20;;;;;;;;;;4984375;28;25058;-76
2023/11/18 13:26:05;;;;;;;42.78;38.88;;;;;;;;;;4985469;28;25079;-74
2023/11/18 13:28:33;;;;;;;42.40;38.40;;;;;;;;;;4986776;28;25070;-77
2023/11/18 13:30:59;;;;;;;39.30;35.80;;;;;;;;;;4978796;28;25134;-74
2023/11/18 13:33:25;;;;;;;41.03;37.10;;;;;;;;;;4983151;28;25064;-74
2023/11/18 13:35:50;;;;;;;40.63;37.10;;;;;;;;;;4988574;28;25138;-73
2023/11/18 13:38:18;;;;;;;42.60;38.85;;;;;;;;;;4988071;28;25088;-74
2023/11/18 13:40:47;;;;;;;42.30;38.60;;;;;;;;;;4989801;28;25109;-77
2023/11/18 13:43:14;;;;;;;40.25;36.72;;;;;;;;;;4988148;28;25159;-75
2023/11/18 13:45:42;;;;;;;42.30;38.60;;;;;;;;;;4989403;28;25054;-71
2023/11/18 13:48:08;;;;;;;40.45;37.00;;;;;;;;;;4983992;28;25151;-74
2023/11/18 13:50:38;;;;;;;41.17;37.58;;;;;;;;;;4987425;28;25053;-77
2023/11/18 13:53:05;;;;;;;42.45;38.78;;;;;;;;;;4988724;28;25064;-73
2023/11/18 13:55:32;;;;;;;41.05;37.55;;;;;;;;;;4988586;28;25055;-75
2023/11/18 13:57:58;;;;;;;37.97;34.67;;;;;;;;;;4987451;28;25107;-75
2023/11/18 14:00:28;;;;;;;39.65;35.97;;;;;;;;;;4990821;28;25061;-73
2023/11/18 14:02:56;;;;;;;39.95;36.50;;;;;;;;;;4988459;28;25089;-74
2023/11/18 14:05:24;;;;;;;40.47;36.85;;;;;;;;;;4988818;28;25135;-77
2023/11/18 14:07:50;;;;;;;38.45;35.15;;;;;;;;;;4993991;28;25066;-77
2023/11/18 14:10:19;;;;;;;36.95;33.65;;;;;;;;;;4994878;28;25103;-76
2023/11/18 14:13:16;;;;;;;35.58;32.53;;;;;;;;;;4991035;28;25060;-75
2023/11/18 14:15:45;;;;;;;34.55;31.67;;;;;;;;;;5002066;28;25076;-78
2023/11/18 14:18:11;;;;;;;36.20;32.90;;;;;;;;;;4992384;28;25079;-77
2023/11/18 14:20:37;;;;;;;36.70;33.60;;;;;;;;;;4980701;28;25175;-77
2023/11/18 14:23:03;;;;;;;36.65;33.55;;;;;;;;;;5007299;28;25092;-75
2023/11/18 14:25:30;;;;;;;36.08;32.97;;;;;;;;;;4984119;28;25070;-76